createdAt,value
2018-11-10T00:01:56.752Z,96967.95
2018-11-10T00:04:25.586Z,96967.98
2018-11-10T00:06:54.528Z,96968.61
2018-11-10T00:09:23.309Z,96958.58
2018-11-10T00:11:52.611Z,96963.50
2018-11-10T00:14:21.593Z,96959.84
2018-11-10T00:16:50.593Z,96959.95
2018-11-10T00:19:19.545Z,96957.27
2018-11-10T00:21:48.540Z,96959.61
2018-11-10T00:24:17.323Z,96950.92
2018-11-10T00:26:46.107Z,96958.58
2018-11-10T00:29:14.924Z,96957.64
2018-11-10T00:31:43.915Z,96953.37
2018-11-10T00:34:12.725Z,96957.16
2018-11-10T00:36:41.520Z,96960.22
2018-11-10T00:39:10.514Z,96952.72
2018-11-10T00:41:39.843Z,96949.95
2018-11-10T00:44:08.798Z,96940.50
2018-11-10T00:46:37.906Z,96936.28
2018-11-10T00:49:06.720Z,96943.86
2018-11-10T00:51:36.090Z,96939.23
2018-11-10T00:54:05.627Z,96937.27
2018-11-10T00:56:34.743Z,96934.83
2018-11-10T00:59:03.636Z,96940.62
2018-11-10T01:01:32.452Z,96934.05
2018-11-10T01:04:01.252Z,96938.77
2018-11-10T01:06:30.047Z,96942.13
2018-11-10T01:08:58.827Z,96928.96
2018-11-10T01:11:27.951Z,96931.79
2018-11-10T01:13:56.720Z,96936.66
2018-11-10T01:16:25.524Z,96940.98
2018-11-10T01:18:54.327Z,96933.38
2018-11-10T01:21:23.071Z,96929.00
2018-11-10T01:23:51.884Z,96932.25
2018-11-10T01:26:20.647Z,96929.67
2018-11-10T01:28:49.453Z,96930.25
2018-11-10T01:31:18.412Z,96922.66
2018-11-10T01:33:47.197Z,96925.20
2018-11-10T01:36:16.300Z,96919.16
2018-11-10T01:38:45.270Z,96918.89
2018-11-10T01:41:14.224Z,96920.48
2018-11-10T01:43:43.212Z,96910.50
2018-11-10T01:46:11.964Z,96914.24
2018-11-10T01:48:41.126Z,96910.00
2018-11-10T01:51:09.946Z,96909.97
2018-11-10T01:53:38.899Z,96899.66
2018-11-10T01:56:07.855Z,96902.91
2018-11-10T01:58:36.962Z,96901.11
2018-11-10T02:01:05.900Z,96899.63
2018-11-10T02:03:34.678Z,96908.52
2018-11-10T02:06:03.463Z,96903.47
2018-11-10T02:08:32.443Z,96898.87
2018-11-10T02:11:01.262Z,96904.30
2018-11-10T02:13:30.208Z,96904.17
2018-11-10T02:15:58.984Z,96896.59
2018-11-10T02:18:27.783Z,96886.09
2018-11-10T02:20:56.883Z,96890.45
2018-11-10T02:23:25.823Z,96891.22
2018-11-10T02:25:54.595Z,96882.36
2018-11-10T02:28:23.419Z,96882.23
2018-11-10T02:30:52.242Z,96883.36
2018-11-10T02:33:20.989Z,96878.17
2018-11-10T02:35:50.003Z,96869.92
2018-11-10T02:38:18.793Z,96870.14
2018-11-10T02:40:47.644Z,96862.06
2018-11-10T02:43:16.613Z,96856.78
2018-11-10T02:45:45.416Z,96849.19
2018-11-10T02:48:14.577Z,96851.41
2018-11-10T02:50:43.584Z,96849.73
2018-11-10T02:53:12.396Z,96849.53
2018-11-10T02:55:41.186Z,96853.56
2018-11-10T02:58:09.991Z,96862.06
2018-11-10T03:00:38.771Z,96858.52
2018-11-10T03:03:07.588Z,96854.02
2018-11-10T03:05:36.367Z,96854.73
2018-11-10T03:08:05.701Z,96856.52
2018-11-10T03:10:34.549Z,96857.64
2018-11-10T03:13:03.524Z,96856.41
2018-11-10T03:15:32.330Z,96852.09
2018-11-10T03:18:01.127Z,96857.84
2018-11-10T03:20:30.143Z,96854.03
2018-11-10T03:22:58.956Z,96852.22
2018-11-10T03:25:27.734Z,96853.56
2018-11-10T03:27:56.524Z,96856.93
2018-11-10T03:30:25.376Z,96849.80
2018-11-10T03:32:54.421Z,96845.44
2018-11-10T03:35:23.214Z,96846.97
2018-11-10T03:37:51.992Z,96843.77
2018-11-10T03:40:20.983Z,96841.41
2018-11-10T03:42:49.779Z,96843.63
2018-11-10T03:45:18.577Z,96845.56
2018-11-10T03:47:47.400Z,96852.70
2018-11-10T03:50:16.180Z,96844.25
2018-11-10T03:52:45.037Z,96851.73
2018-11-10T03:55:13.819Z,96846.33
2018-11-10T03:57:42.629Z,96835.67
2018-11-10T04:00:14.605Z,96843.09
2018-11-10T04:02:44.526Z,96843.17
2018-11-10T04:05:13.700Z,96839.05
2018-11-10T04:07:43.843Z,96843.44
2018-11-10T04:10:13.145Z,96839.45
2018-11-10T04:12:41.935Z,96842.61
2018-11-10T04:15:10.738Z,96834.40
2018-11-10T04:17:39.710Z,96830.09
2018-11-10T04:20:09.415Z,96827.27
2018-11-10T04:22:38.592Z,96827.20
2018-11-10T04:25:11.883Z,96830.94
2018-11-10T04:27:40.719Z,96833.36
2018-11-10T04:30:10.416Z,96829.41
2018-11-10T04:32:39.391Z,96824.50
2018-11-10T04:35:08.424Z,96817.08
2018-11-10T04:37:37.442Z,96809.15
2018-11-10T04:40:07.443Z,96807.17
2018-11-10T04:42:36.273Z,96805.48
2018-11-10T04:45:05.835Z,96806.43
2018-11-10T04:47:34.620Z,96808.53
2018-11-10T04:50:04.076Z,96807.84
2018-11-10T04:52:32.889Z,96809.92
2018-11-10T04:55:02.532Z,96801.28
2018-11-10T04:57:31.336Z,96812.91
2018-11-10T05:00:00.127Z,96812.96
2018-11-10T05:02:29.107Z,96812.23
2018-11-10T05:04:57.884Z,96817.77
2018-11-10T05:07:26.726Z,96816.88
2018-11-10T05:09:55.499Z,96818.05
2018-11-10T05:12:24.338Z,96821.10
2018-11-10T05:14:53.113Z,96818.52
2018-11-10T05:17:22.079Z,96814.37
2018-11-10T05:19:51.074Z,96811.30
2018-11-10T05:22:19.843Z,96810.27
2018-11-10T05:24:48.925Z,96810.60
2018-11-10T05:27:17.748Z,96812.91
2018-11-10T05:29:46.744Z,96803.62
2018-11-10T05:32:15.557Z,96806.07
2018-11-10T05:34:44.319Z,96805.03
2018-11-10T05:37:13.107Z,96808.29
2018-11-10T05:39:41.936Z,96804.61
2018-11-10T05:42:10.902Z,96804.33
2018-11-10T05:44:39.904Z,96807.30
2018-11-10T05:47:08.855Z,96797.05
2018-11-10T05:49:37.636Z,96792.41
2018-11-10T05:52:06.593Z,96790.95
2018-11-10T05:54:35.368Z,96798.58
2018-11-10T05:57:04.289Z,96803.84
2018-11-10T05:59:33.179Z,96797.33
2018-11-10T06:02:01.992Z,96798.80
2018-11-10T06:04:30.963Z,96793.38
2018-11-10T06:06:59.742Z,96798.66
2018-11-10T06:09:28.558Z,96799.77
2018-11-10T06:11:57.540Z,96797.76
2018-11-10T06:14:26.402Z,96802.73
2018-11-10T06:16:55.201Z,96803.84
2018-11-10T06:19:24.037Z,96797.53
2018-11-10T06:21:52.838Z,96796.70
2018-11-10T06:24:21.835Z,96793.17
2018-11-10T06:26:50.680Z,96790.18
2018-11-10T06:29:19.872Z,96790.88
2018-11-10T06:31:48.716Z,96786.66
2018-11-10T06:34:17.483Z,96787.14
2018-11-10T06:36:46.262Z,96791.51
2018-11-10T06:39:15.240Z,96792.34
2018-11-10T06:41:44.065Z,96790.48
2018-11-10T06:44:12.886Z,96797.75
2018-11-10T06:46:41.686Z,96791.80
2018-11-10T06:49:11.053Z,96792.63
2018-11-10T06:51:40.105Z,96795.47
2018-11-10T06:54:09.169Z,96797.20
2018-11-10T06:56:38.188Z,96788.19
2018-11-10T06:59:07.231Z,96784.72
2018-11-10T07:01:36.498Z,96786.88
2018-11-10T07:04:05.523Z,96783.06
2018-11-10T07:06:34.620Z,96789.78
2018-11-10T07:09:04.614Z,96788.12
2018-11-10T07:11:33.617Z,96780.08
2018-11-10T07:14:02.706Z,96789.78
2018-11-10T07:16:31.749Z,96790.06
2018-11-10T07:19:00.836Z,96789.50
2018-11-10T07:21:29.624Z,96797.13
2018-11-10T07:23:58.460Z,96794.91
2018-11-10T07:26:27.310Z,96798.45
2018-11-10T07:28:56.110Z,96795.05
2018-11-10T07:31:24.911Z,96791.59
2018-11-10T07:33:53.948Z,96791.17
2018-11-10T07:36:22.783Z,96788.61
2018-11-10T07:38:52.094Z,96799.63
2018-11-10T07:41:20.963Z,96802.03
2018-11-10T07:43:49.835Z,96798.45
2018-11-10T07:46:18.648Z,96798.59
2018-11-10T07:48:47.455Z,96798.59
2018-11-10T07:51:16.352Z,96790.89
2018-11-10T07:53:45.395Z,96781.27
2018-11-10T07:56:14.170Z,96785.28
2018-11-10T07:58:42.970Z,96787.50
2018-11-10T08:01:11.852Z,96796.02
2018-11-10T08:03:40.656Z,96791.73
2018-11-10T08:06:09.450Z,96791.03
2018-11-10T08:08:38.486Z,96793.67
2018-11-10T08:11:07.368Z,96786.25
2018-11-10T08:13:36.234Z,96782.72
2018-11-10T08:16:05.552Z,96783.20
2018-11-10T08:18:34.617Z,96784.73
2018-11-10T08:21:03.661Z,96792.28
2018-11-10T08:23:32.539Z,96784.17
2018-11-10T08:26:01.672Z,96780.02
2018-11-10T08:28:30.509Z,96787.14
2018-11-10T08:30:59.683Z,96792.13
2018-11-10T08:33:28.694Z,96782.22
2018-11-10T08:35:57.513Z,96783.41
2018-11-10T08:38:26.397Z,96784.45
2018-11-10T08:40:55.265Z,96772.66
2018-11-10T08:43:24.114Z,96774.81
2018-11-10T08:45:53.065Z,96770.09
2018-11-10T08:48:21.883Z,96773.70
2018-11-10T08:50:50.754Z,96774.88
2018-11-10T08:53:19.547Z,96775.23
2018-11-10T08:55:48.375Z,96767.95
2018-11-10T08:58:17.173Z,96772.80
2018-11-10T09:00:46.001Z,96761.77
2018-11-10T09:03:14.899Z,96765.52
2018-11-10T09:05:43.869Z,96760.73
2018-11-10T09:08:12.677Z,96766.36
2018-11-10T09:10:41.505Z,96785.77
2018-11-10T09:13:10.507Z,96795.59
2018-11-10T09:15:39.493Z,96810.09
2018-11-10T09:18:08.493Z,96797.73
2018-11-10T09:20:37.329Z,96800.39
2018-11-10T09:23:06.531Z,96791.03
2018-11-10T09:25:35.374Z,96784.02
2018-11-10T09:28:04.576Z,96781.41
2018-11-10T09:30:33.383Z,96790.71
2018-11-10T09:33:02.241Z,96791.18
2018-11-10T09:35:31.008Z,96791.52
2018-11-10T09:37:59.797Z,96789.66
2018-11-10T09:40:28.623Z,96791.23
2018-11-10T09:42:57.457Z,96798.61
2018-11-10T09:45:26.259Z,96796.85
2018-11-10T09:47:55.096Z,96792.21
2018-11-10T09:50:23.881Z,96785.28
2018-11-10T09:52:53.711Z,96785.97
2018-11-10T09:55:22.619Z,96784.66
2018-11-10T09:57:51.411Z,96785.07
2018-11-10T10:00:21.600Z,96780.02
2018-11-10T10:02:51.090Z,96775.23
2018-11-10T10:05:20.264Z,96781.54
2018-11-10T10:07:49.072Z,96782.30
2018-11-10T10:10:18.543Z,96780.70
2018-11-10T10:12:47.696Z,96779.05
2018-11-10T10:15:17.901Z,96779.59
2018-11-10T10:17:47.062Z,96773.56
2018-11-10T10:20:17.577Z,96762.34
2018-11-10T10:22:47.186Z,96768.23
2018-11-10T10:25:16.925Z,96755.91
2018-11-10T10:27:46.512Z,96754.45
2018-11-10T10:30:18.171Z,96752.50
2018-11-10T10:32:47.764Z,96753.13
2018-11-10T10:35:16.948Z,96747.30
2018-11-10T10:37:46.874Z,96744.31
2018-11-10T10:40:16.322Z,96746.73
2018-11-10T10:42:45.640Z,96743.61
2018-11-10T10:45:16.986Z,96735.78
2018-11-10T10:47:46.322Z,96735.02
2018-11-10T10:50:16.319Z,96728.48
2018-11-10T10:52:45.172Z,96735.16
2018-11-10T10:55:15.019Z,96730.84
2018-11-10T10:57:44.922Z,96719.72
2018-11-10T11:00:19.367Z,96713.62
2018-11-10T11:02:53.789Z,96712.93
2018-11-10T11:05:28.146Z,96707.23
2018-11-10T11:07:56.949Z,96707.31
2018-11-10T11:10:25.755Z,96705.77
2018-11-10T11:12:54.556Z,96702.30
2018-11-10T11:15:23.740Z,96694.64
2018-11-10T11:17:52.523Z,96694.30
2018-11-10T11:20:21.674Z,96693.16
2018-11-10T11:22:50.684Z,96693.85
2018-11-10T11:25:19.552Z,96692.39
2018-11-10T11:27:48.447Z,96698.92
2018-11-10T11:30:17.258Z,96699.70
2018-11-10T11:32:46.301Z,96705.11
2018-11-10T11:35:15.342Z,96697.84
2018-11-10T11:37:44.356Z,96705.94
2018-11-10T11:40:14.148Z,96711.02
2018-11-10T11:42:43.479Z,96717.74
2018-11-10T11:45:13.076Z,96721.55
2018-11-10T11:47:42.917Z,96720.03
2018-11-10T11:50:13.996Z,96707.55
2018-11-10T11:52:43.404Z,96711.06
2018-11-10T11:55:12.711Z,96696.52
2018-11-10T11:57:41.840Z,96695.89
2018-11-10T12:00:13.075Z,96691.94
2018-11-10T12:02:42.575Z,96685.20
2018-11-10T12:05:12.888Z,96693.99
2018-11-10T12:07:41.717Z,96696.03
2018-11-10T12:10:13.080Z,96692.82
2018-11-10T12:12:41.951Z,96693.31
2018-11-10T12:15:12.231Z,96685.26
2018-11-10T12:17:41.580Z,96677.50
2018-11-10T12:20:12.332Z,96682.97
2018-11-10T12:22:41.313Z,96689.41
2018-11-10T12:25:11.482Z,96693.30
2018-11-10T12:27:41.017Z,96697.41
2018-11-10T12:30:10.642Z,96685.89
2018-11-10T12:32:39.902Z,96696.62
2018-11-10T12:35:09.511Z,96690.23
2018-11-10T12:37:38.371Z,96689.41
2018-11-10T12:40:09.024Z,96689.02
2018-11-10T12:42:38.656Z,96686.92
2018-11-10T12:45:08.939Z,96689.12
2018-11-10T12:47:38.172Z,96687.41
2018-11-10T12:50:08.135Z,96693.28
2018-11-10T12:52:36.936Z,96683.45
2018-11-10T12:55:07.215Z,96688.30
2018-11-10T12:57:36.224Z,96687.80
2018-11-10T13:00:06.077Z,96686.30
2018-11-10T13:02:34.897Z,96685.02
2018-11-10T13:05:03.745Z,96681.51
2018-11-10T13:07:32.780Z,96673.98
2018-11-10T13:10:01.811Z,96675.45
2018-11-10T13:12:30.857Z,96663.83
2018-11-10T13:14:59.877Z,96673.70
2018-11-10T13:17:28.889Z,96667.16
2018-11-10T13:19:57.732Z,96667.83
2018-11-10T13:22:26.528Z,96678.04
2018-11-10T13:24:55.329Z,96668.52
2018-11-10T13:27:24.307Z,96662.07
2018-11-10T13:29:53.099Z,96663.88
2018-11-10T13:32:21.893Z,96669.34
2018-11-10T13:34:50.736Z,96678.09
2018-11-10T13:37:19.509Z,96673.94
2018-11-10T13:39:48.272Z,96673.55
2018-11-10T13:42:17.102Z,96672.86
2018-11-10T13:44:46.414Z,96678.77
2018-11-10T13:47:15.238Z,96682.14
2018-11-10T13:49:44.035Z,96678.19
2018-11-10T13:52:13.419Z,96677.31
2018-11-10T13:54:42.234Z,96687.38
2018-11-10T13:57:11.051Z,96684.39
2018-11-10T13:59:39.998Z,96680.34
2018-11-10T14:02:09.002Z,96676.67
2018-11-10T14:04:38.132Z,96669.05
2018-11-10T14:07:06.965Z,96667.49
2018-11-10T14:09:35.766Z,96664.86
2018-11-10T14:12:04.872Z,96671.20
2018-11-10T14:14:33.703Z,96676.63
2018-11-10T14:17:02.839Z,96682.00
2018-11-10T14:19:31.971Z,96685.61
2018-11-10T14:22:01.010Z,96694.11
2018-11-10T14:24:29.833Z,96690.10
2018-11-10T14:26:58.676Z,96683.66
2018-11-10T14:29:27.545Z,96680.63
2018-11-10T14:31:56.391Z,96683.55
2018-11-10T14:34:25.184Z,96678.72
2018-11-10T14:36:54.379Z,96677.20
2018-11-10T14:39:23.375Z,96695.16
2018-11-10T14:41:52.333Z,96691.21
2018-11-10T14:44:21.387Z,96690.58
2018-11-10T14:46:50.324Z,96686.23
2018-11-10T14:49:19.178Z,96695.45
2018-11-10T14:51:48.215Z,96689.55
2018-11-10T14:54:17.019Z,96688.78
2018-11-10T14:56:45.879Z,96689.20
2018-11-10T14:59:14.703Z,96686.91
2018-11-10T15:01:43.538Z,96687.46
2018-11-10T15:04:12.547Z,96691.91
2018-11-10T15:06:41.397Z,96687.06
2018-11-10T15:09:10.886Z,96686.37
2018-11-10T15:11:39.920Z,96689.25
2018-11-10T15:14:08.841Z,96686.95
2018-11-10T15:16:37.733Z,96686.03
2018-11-10T15:19:07.385Z,96688.61
2018-11-10T15:21:36.232Z,96685.78
2018-11-10T15:24:05.611Z,96694.86
2018-11-10T15:26:34.473Z,96690.08
2018-11-10T15:29:03.392Z,96684.17
2018-11-10T15:31:32.251Z,96686.03
2018-11-10T15:34:01.129Z,96684.52
2018-11-10T15:36:29.996Z,96687.92
2018-11-10T15:38:58.833Z,96683.83
2018-11-10T15:41:27.953Z,96681.83
2018-11-10T15:43:56.799Z,96688.41
2018-11-10T15:46:25.667Z,96692.85
2018-11-10T15:48:54.529Z,96691.36
2018-11-10T15:51:23.484Z,96697.00
2018-11-10T15:53:52.314Z,96703.11
2018-11-10T15:56:21.261Z,96701.67
2018-11-10T15:58:50.021Z,96695.77
2018-11-10T16:01:18.904Z,96697.52
2018-11-10T16:03:47.797Z,96704.70
2018-11-10T16:06:16.592Z,96708.00
2018-11-10T16:08:45.421Z,96698.95
2018-11-10T16:11:14.321Z,96701.45
2018-11-10T16:13:43.332Z,96702.39
2018-11-10T16:16:12.147Z,96707.56
2018-11-10T16:18:41.295Z,96705.42
2018-11-10T16:21:10.534Z,96705.86
2018-11-10T16:23:39.528Z,96701.70
2018-11-10T16:26:08.344Z,96700.38
2018-11-10T16:28:37.231Z,96703.65
2018-11-10T16:31:06.151Z,96700.47
2018-11-10T16:33:35.233Z,96703.59
2018-11-10T16:36:04.048Z,96702.08
2018-11-10T16:38:32.931Z,96704.20
2018-11-10T16:41:01.738Z,96707.52
2018-11-10T16:43:30.764Z,96710.47
2018-11-10T16:45:59.660Z,96710.18
2018-11-10T16:48:28.514Z,96710.04
2018-11-10T16:50:57.437Z,96706.63
2018-11-10T16:53:26.425Z,96706.28
2018-11-10T16:55:55.430Z,96699.81
2018-11-10T16:58:24.262Z,96690.27
2018-11-10T17:00:53.503Z,96699.27
2018-11-10T17:03:22.324Z,96703.11
2018-11-10T17:05:51.128Z,96698.75
2018-11-10T17:08:19.992Z,96703.82
2018-11-10T17:10:48.932Z,96711.09
2018-11-10T17:13:17.843Z,96714.97
2018-11-10T17:15:47.008Z,96715.31
2018-11-10T17:18:15.920Z,96725.22
2018-11-10T17:20:44.798Z,96713.45
2018-11-10T17:23:13.759Z,96715.31
2018-11-10T17:25:42.552Z,96712.39
2018-11-10T17:28:11.607Z,96715.31
2018-11-10T17:30:40.726Z,96716.97
2018-11-10T17:33:09.559Z,96715.94
2018-11-10T17:35:38.900Z,96709.15
2018-11-10T17:38:07.816Z,96719.20
2018-11-10T17:40:36.775Z,96717.20
2018-11-10T17:43:06.104Z,96712.92
2018-11-10T17:45:34.909Z,96711.30
2018-11-10T17:48:03.765Z,96706.52
2018-11-10T17:50:32.739Z,96708.20
2018-11-10T17:53:01.601Z,96692.36
2018-11-10T17:55:30.585Z,96699.44
2018-11-10T17:57:59.772Z,96701.81
2018-11-10T18:00:28.746Z,96698.55
2018-11-10T18:02:57.565Z,96698.06
2018-11-10T18:05:26.404Z,96699.58
2018-11-10T18:07:55.216Z,96692.05
2018-11-10T18:10:24.378Z,96691.68
2018-11-10T18:12:53.198Z,96681.86
2018-11-10T18:15:22.529Z,96675.41
2018-11-10T18:17:51.387Z,96676.30
2018-11-10T18:20:20.175Z,96672.61
2018-11-10T18:22:49.206Z,96674.15
2018-11-10T18:25:18.412Z,96675.09
2018-11-10T18:27:47.353Z,96675.38
2018-11-10T18:30:18.721Z,96682.25
2018-11-10T18:32:47.575Z,96681.83
2018-11-10T18:35:16.520Z,96693.22
2018-11-10T18:37:45.339Z,96697.66
2018-11-10T18:40:14.201Z,96698.27
2018-11-10T18:42:43.014Z,96699.86
2018-11-10T18:45:12.603Z,96699.38
2018-11-10T18:47:41.933Z,96697.32
2018-11-10T18:50:12.871Z,96693.69
2018-11-10T18:52:42.152Z,96691.28
2018-11-10T18:55:11.787Z,96695.14
2018-11-10T18:57:40.952Z,96695.28
2018-11-10T19:00:11.963Z,96701.41
2018-11-10T19:02:41.267Z,96706.45
2018-11-10T19:05:12.037Z,96707.48
2018-11-10T19:07:40.933Z,96704.31
2018-11-10T19:10:11.785Z,96701.59
2018-11-10T19:12:40.960Z,96705.54
2018-11-10T19:15:13.639Z,96706.34
2018-11-10T19:17:42.499Z,96702.16
2018-11-10T19:20:12.348Z,96701.33
2018-11-10T19:22:41.482Z,96702.30
2018-11-10T19:25:11.869Z,96700.50
2018-11-10T19:27:41.227Z,96714.21
2018-11-10T19:30:18.692Z,96713.80
2018-11-10T19:32:48.353Z,96711.59
2018-11-10T19:35:18.069Z,96719.16
2018-11-10T19:37:47.173Z,96715.34
2018-11-10T19:40:16.011Z,96720.17
2018-11-10T19:42:45.674Z,96714.30
2018-11-10T19:45:15.247Z,96712.23
2018-11-10T19:47:44.948Z,96710.48
2018-11-10T19:50:14.571Z,96717.01
2018-11-10T19:52:43.817Z,96710.55
2018-11-10T19:55:14.317Z,96710.41
2018-11-10T19:57:43.420Z,96709.14
2018-11-10T20:00:16.504Z,96709.66
2018-11-10T20:02:45.386Z,96716.11
2018-11-10T20:05:14.177Z,96716.05
2018-11-10T20:07:43.083Z,96716.66
2018-11-10T20:10:12.479Z,96708.97
2018-11-10T20:12:41.763Z,96716.80
2018-11-10T20:15:11.896Z,96717.77
2018-11-10T20:17:41.281Z,96721.09
2018-11-10T20:20:11.471Z,96722.48
2018-11-10T20:22:40.458Z,96715.77
2018-11-10T20:25:11.359Z,96715.89
2018-11-10T20:27:41.953Z,96717.20
2018-11-10T20:30:12.728Z,96717.42
2018-11-10T20:32:41.549Z,96718.99
2018-11-10T20:35:11.600Z,96715.27
2018-11-10T20:37:41.183Z,96711.95
2018-11-10T20:40:12.414Z,96720.66
2018-11-10T20:42:41.392Z,96716.30
2018-11-10T20:45:14.435Z,96713.73
2018-11-10T20:47:43.610Z,96719.92
2018-11-10T20:50:13.075Z,96709.25
2018-11-10T20:52:42.431Z,96711.75
2018-11-10T20:55:12.094Z,96719.28
2018-11-10T20:57:40.892Z,96729.13
2018-11-10T21:00:12.539Z,96721.58
2018-11-10T21:02:42.679Z,96728.17
2018-11-10T21:05:12.543Z,96728.45
2018-11-10T21:07:41.504Z,96732.88
2018-11-10T21:10:12.695Z,96724.23
2018-11-10T21:12:42.031Z,96722.84
2018-11-10T21:15:11.764Z,96724.72
2018-11-10T21:17:40.913Z,96717.98
2018-11-10T21:20:10.868Z,96716.61
2018-11-10T21:22:39.850Z,96722.16
2018-11-10T21:25:10.068Z,96724.58
2018-11-10T21:27:39.077Z,96717.72
2018-11-10T21:30:09.231Z,96717.08
2018-11-10T21:32:38.171Z,96717.70
2018-11-10T21:35:07.535Z,96716.66
2018-11-10T21:37:36.868Z,96716.11
2018-11-10T21:40:08.137Z,96707.03
2018-11-10T21:42:37.027Z,96714.94
2018-11-10T21:45:07.299Z,96719.72
2018-11-10T21:47:36.140Z,96704.75
2018-11-10T21:50:07.152Z,96716.05
2018-11-10T21:52:36.348Z,96710.56
2018-11-10T21:55:05.248Z,96718.81
2018-11-10T21:57:34.035Z,96721.23
2018-11-10T22:00:02.824Z,96731.22
2018-11-10T22:02:31.644Z,96739.61
2018-11-10T22:05:00.610Z,96743.14
2018-11-10T22:07:29.391Z,96738.98
2018-11-10T22:09:58.254Z,96731.98
2018-11-10T22:12:27.222Z,96731.49
2018-11-10T22:14:56.025Z,96720.14
2018-11-10T22:17:24.843Z,96733.93
2018-11-10T22:19:53.661Z,96735.92
2018-11-10T22:22:22.734Z,96725.11
2018-11-10T22:24:53.470Z,96738.14
2018-11-10T22:27:22.218Z,96734.47
2018-11-10T22:29:51.017Z,96729.00
2018-11-10T22:32:19.826Z,96725.73
2018-11-10T22:34:48.607Z,96721.91
2018-11-10T22:37:17.971Z,96724.42
2018-11-10T22:39:46.825Z,96715.56
2018-11-10T22:42:15.798Z,96707.31
2018-11-10T22:44:44.618Z,96711.39
2018-11-10T22:47:13.437Z,96703.98
2018-11-10T22:49:42.220Z,96711.95
2018-11-10T22:52:11.029Z,96720.14
2018-11-10T22:54:39.922Z,96716.17
2018-11-10T22:57:08.787Z,96724.30
2018-11-10T22:59:37.766Z,96730.40
2018-11-10T23:02:06.834Z,96714.80
2018-11-10T23:04:35.672Z,96715.30
2018-11-10T23:07:04.623Z,96713.76
2018-11-10T23:09:33.486Z,96712.85
2018-11-10T23:12:02.616Z,96699.27
2018-11-10T23:14:31.624Z,96689.57
2018-11-10T23:17:00.425Z,96693.58
2018-11-10T23:19:29.411Z,96687.97
2018-11-10T23:21:58.416Z,96689.37
2018-11-10T23:24:27.254Z,96693.53
2018-11-10T23:26:56.252Z,96704.84
2018-11-10T23:29:25.048Z,96694.24
2018-11-10T23:31:53.885Z,96701.44
2018-11-10T23:34:22.701Z,96702.48
2018-11-10T23:36:51.504Z,96694.86
2018-11-10T23:39:20.305Z,96700.41
2018-11-10T23:41:49.141Z,96700.83
2018-11-10T23:44:17.955Z,96698.68
2018-11-10T23:46:46.788Z,96690.16
2018-11-10T23:49:15.788Z,96697.84
2018-11-10T23:51:44.583Z,96710.11
2018-11-10T23:54:13.449Z,96715.65
2018-11-10T23:56:43.339Z,96714.81
2018-11-10T23:59:12.141Z,96718.14
